sensor_id;sensor_type;location;lat;lon;timestamp;P1;durP1;ratioP1;P2;durP2;ratioP2
35223;SDS011;21367;51.930;8.112;2023-05-13T00:00:02;9.23;;;6.18;;
35223;SDS011;21367;51.930;8.112;2023-05-13T00:05:06;15.60;;;5.97;;
35223;SDS011;21367;51.930;8.112;2023-05-13T00:10:13;12.40;;;6.50;;
35223;SDS011;21367;51.930;8.112;2023-05-13T00:15:17;15.18;;;6.07;;
35223;SDS011;21367;51.930;8.112;2023-05-13T00:20:21;10.73;;;6.20;;
35223;SDS011;21367;51.930;8.112;2023-05-13T00:25:27;10.55;;;6.38;;
35223;SDS011;21367;51.930;8.112;2023-05-13T00:30:32;13.15;;;6.22;;
35223;SDS011;21367;51.930;8.112;2023-05-13T00:35:37;10.73;;;6.80;;
35223;SDS011;21367;51.930;8.112;2023-05-13T00:40:44;14.02;;;6.90;;
35223;SDS011;21367;51.930;8.112;2023-05-13T00:45:50;10.45;;;5.55;;
35223;SDS011;21367;51.930;8.112;2023-05-13T00:50:54;16.90;;;6.75;;
35223;SDS011;21367;51.930;8.112;2023-05-13T00:56:01;17.20;;;6.57;;
35223;SDS011;21367;51.930;8.112;2023-05-13T01:01:08;13.50;;;6.95;;
35223;SDS011;21367;51.930;8.112;2023-05-13T01:06:20;12.95;;;6.40;;
35223;SDS011;21367;51.930;8.112;2023-05-13T01:11:33;12.10;;;6.60;;
35223;SDS011;21367;51.930;8.112;2023-05-13T01:16:45;11.23;;;7.07;;
35223;SDS011;21367;51.930;8.112;2023-05-13T01:21:55;11.10;;;6.70;;
35223;SDS011;21367;51.930;8.112;2023-05-13T01:32:04;14.80;;;7.43;;
35223;SDS011;21367;51.930;8.112;2023-05-13T01:37:12;14.48;;;7.18;;
35223;SDS011;21367;51.930;8.112;2023-05-13T01:42:17;11.57;;;6.90;;
35223;SDS011;21367;51.930;8.112;2023-05-13T01:47:20;12.88;;;7.22;;
35223;SDS011;21367;51.930;8.112;2023-05-13T01:52:27;10.98;;;6.78;;
35223;SDS011;21367;51.930;8.112;2023-05-13T01:57:31;10.82;;;7.32;;
35223;SDS011;21367;51.930;8.112;2023-05-13T02:02:36;12.13;;;7.63;;
35223;SDS011;21367;51.930;8.112;2023-05-13T02:07:43;10.18;;;7.18;;
35223;SDS011;21367;51.930;8.112;2023-05-13T02:12:46;12.10;;;6.82;;
35223;SDS011;21367;51.930;8.112;2023-05-13T02:17:51;14.90;;;7.05;;
35223;SDS011;21367;51.930;8.112;2023-05-13T02:22:58;13.07;;;7.45;;
35223;SDS011;21367;51.930;8.112;2023-05-13T02:28:01;27.38;;;8.60;;
35223;SDS011;21367;51.930;8.112;2023-05-13T02:33:05;14.60;;;7.78;;
35223;SDS011;21367;51.930;8.112;2023-05-13T02:38:12;17.42;;;8.52;;
35223;SDS011;21367;51.930;8.112;2023-05-13T02:48:27;18.02;;;8.43;;
35223;SDS011;21367;51.930;8.112;2023-05-13T02:53:34;14.35;;;7.68;;
35223;SDS011;21367;51.930;8.112;2023-05-13T02:58:39;14.32;;;7.55;;
35223;SDS011;21367;51.930;8.112;2023-05-13T03:03:43;14.02;;;8.05;;
35223;SDS011;21367;51.930;8.112;2023-05-13T03:08:50;19.15;;;8.40;;
35223;SDS011;21367;51.930;8.112;2023-05-13T03:13:54;15.93;;;8.32;;
35223;SDS011;21367;51.930;8.112;2023-05-13T03:18:58;16.60;;;8.30;;
35223;SDS011;21367;51.930;8.112;2023-05-13T03:24:04;13.27;;;7.35;;
35223;SDS011;21367;51.930;8.112;2023-05-13T03:29:09;16.65;;;8.20;;
35223;SDS011;21367;51.930;8.112;2023-05-13T03:34:13;17.33;;;8.82;;
35223;SDS011;21367;51.930;8.112;2023-05-13T03:39:20;20.10;;;7.60;;
35223;SDS011;21367;51.930;8.112;2023-05-13T03:44:25;17.27;;;8.30;;
35223;SDS011;21367;51.930;8.112;2023-05-13T03:49:29;15.10;;;7.68;;
35223;SDS011;21367;51.930;8.112;2023-05-13T03:54:35;13.35;;;7.95;;
35223;SDS011;21367;51.930;8.112;2023-05-13T03:59:40;11.65;;;8.10;;
35223;SDS011;21367;51.930;8.112;2023-05-13T04:04:44;16.42;;;8.02;;
35223;SDS011;21367;51.930;8.112;2023-05-13T04:09:51;15.57;;;10.00;;
35223;SDS011;21367;51.930;8.112;2023-05-13T04:14:54;16.60;;;8.80;;
35223;SDS011;21367;51.930;8.112;2023-05-13T04:19:58;20.42;;;8.38;;
35223;SDS011;21367;51.930;8.112;2023-05-13T04:25:07;16.58;;;8.48;;
35223;SDS011;21367;51.930;8.112;2023-05-13T04:30:12;17.10;;;8.88;;
35223;SDS011;21367;51.930;8.112;2023-05-13T04:35:17;20.08;;;8.82;;
35223;SDS011;21367;51.930;8.112;2023-05-13T04:40:28;16.55;;;8.90;;
35223;SDS011;21367;51.930;8.112;2023-05-13T04:45:38;16.50;;;8.63;;
35223;SDS011;21367;51.930;8.112;2023-05-13T04:50:45;13.35;;;8.80;;
35223;SDS011;21367;51.930;8.112;2023-05-13T04:55:53;20.65;;;9.43;;
35223;SDS011;21367;51.930;8.112;2023-05-13T05:01:02;35.10;;;13.57;;
35223;SDS011;21367;51.930;8.112;2023-05-13T05:06:06;38.53;;;16.83;;
35223;SDS011;21367;51.930;8.112;2023-05-13T05:11:13;42.33;;;18.23;;
35223;SDS011;21367;51.930;8.112;2023-05-13T05:16:17;23.23;;;11.88;;
35223;SDS011;21367;51.930;8.112;2023-05-13T05:21:21;16.00;;;9.15;;
35223;SDS011;21367;51.930;8.112;2023-05-13T05:26:28;15.88;;;8.60;;
35223;SDS011;21367;51.930;8.112;2023-05-13T05:31:32;13.48;;;7.88;;
35223;SDS011;21367;51.930;8.112;2023-05-13T05:36:36;17.88;;;9.45;;
35223;SDS011;21367;51.930;8.112;2023-05-13T05:41:43;16.40;;;8.55;;
35223;SDS011;21367;51.930;8.112;2023-05-13T05:46:47;16.17;;;8.00;;
35223;SDS011;21367;51.930;8.112;2023-05-13T05:51:52;18.58;;;8.88;;
35223;SDS011;21367;51.930;8.112;2023-05-13T05:56:58;15.73;;;7.95;;
35223;SDS011;21367;51.930;8.112;2023-05-13T06:07:06;12.95;;;7.78;;
35223;SDS011;21367;51.930;8.112;2023-05-13T06:12:12;12.40;;;7.55;;
35223;SDS011;21367;51.930;8.112;2023-05-13T06:17:16;19.08;;;7.35;;
35223;SDS011;21367;51.930;8.112;2023-05-13T06:22:19;14.38;;;7.43;;
35223;SDS011;21367;51.930;8.112;2023-05-13T06:27:26;24.27;;;7.25;;
35223;SDS011;21367;51.930;8.112;2023-05-13T06:32:30;19.20;;;7.15;;
35223;SDS011;21367;51.930;8.112;2023-05-13T06:37:33;17.05;;;6.38;;
35223;SDS011;21367;51.930;8.112;2023-05-13T06:42:40;16.58;;;7.50;;
35223;SDS011;21367;51.930;8.112;2023-05-13T06:48:00;15.07;;;6.63;;
35223;SDS011;21367;51.930;8.112;2023-05-13T06:53:05;12.35;;;6.70;;
35223;SDS011;21367;51.930;8.112;2023-05-13T06:58:11;15.13;;;6.40;;
35223;SDS011;21367;51.930;8.112;2023-05-13T07:03:15;20.33;;;6.50;;
35223;SDS011;21367;51.930;8.112;2023-05-13T07:08:19;17.02;;;5.90;;
35223;SDS011;21367;51.930;8.112;2023-05-13T07:13:26;11.15;;;5.85;;
35223;SDS011;21367;51.930;8.112;2023-05-13T07:18:32;10.38;;;6.03;;
35223;SDS011;21367;51.930;8.112;2023-05-13T07:23:36;23.40;;;6.00;;
35223;SDS011;21367;51.930;8.112;2023-05-13T07:28:43;11.20;;;5.07;;
35223;SDS011;21367;51.930;8.112;2023-05-13T07:33:47;17.63;;;5.47;;
35223;SDS011;21367;51.930;8.112;2023-05-13T07:38:51;17.95;;;5.30;;
35223;SDS011;21367;51.930;8.112;2023-05-13T07:43:57;13.43;;;5.55;;
35223;SDS011;21367;51.930;8.112;2023-05-13T07:49:01;13.77;;;5.18;;
35223;SDS011;21367;51.930;8.112;2023-05-13T07:54:07;12.45;;;6.25;;
35223;SDS011;21367;51.930;8.112;2023-05-13T07:59:14;12.50;;;6.00;;
35223;SDS011;21367;51.930;8.112;2023-05-13T08:04:17;11.07;;;4.95;;
35223;SDS011;21367;51.930;8.112;2023-05-13T08:09:22;18.77;;;5.60;;
35223;SDS011;21367;51.930;8.112;2023-05-13T08:14:28;18.30;;;5.68;;
35223;SDS011;21367;51.930;8.112;2023-05-13T08:19:32;15.15;;;5.60;;
35223;SDS011;21367;51.930;8.112;2023-05-13T08:24:37;10.63;;;4.75;;
35223;SDS011;21367;51.930;8.112;2023-05-13T08:29:45;9.73;;;4.57;;
35223;SDS011;21367;51.930;8.112;2023-05-13T08:34:48;21.08;;;5.30;;
35223;SDS011;21367;51.930;8.112;2023-05-13T08:39:52;10.75;;;5.00;;
35223;SDS011;21367;51.930;8.112;2023-05-13T08:45:03;16.08;;;4.60;;
35223;SDS011;21367;51.930;8.112;2023-05-13T08:50:08;12.38;;;4.75;;
35223;SDS011;21367;51.930;8.112;2023-05-13T09:00:20;12.60;;;4.35;;
35223;SDS011;21367;51.930;8.112;2023-05-13T09:05:24;9.70;;;4.72;;
35223;SDS011;21367;51.930;8.112;2023-05-13T09:10:29;11.15;;;6.25;;
35223;SDS011;21367;51.930;8.112;2023-05-13T09:15:35;14.82;;;4.75;;
35223;SDS011;21367;51.930;8.112;2023-05-13T09:20:39;13.93;;;3.95;;
35223;SDS011;21367;51.930;8.112;2023-05-13T09:25:44;15.07;;;4.63;;
35223;SDS011;21367;51.930;8.112;2023-05-13T09:30:55;14.05;;;4.68;;
35223;SDS011;21367;51.930;8.112;2023-05-13T09:35:58;13.50;;;4.57;;
35223;SDS011;21367;51.930;8.112;2023-05-13T09:41:06;22.25;;;4.95;;
35223;SDS011;21367;51.930;8.112;2023-05-13T09:46:13;11.55;;;4.50;;
35223;SDS011;21367;51.930;8.112;2023-05-13T09:51:17;11.55;;;4.50;;
35223;SDS011;21367;51.930;8.112;2023-05-13T09:56:21;14.45;;;4.22;;
35223;SDS011;21367;51.930;8.112;2023-05-13T10:01:29;12.38;;;4.07;;
35223;SDS011;21367;51.930;8.112;2023-05-13T10:06:33;11.02;;;4.15;;
35223;SDS011;21367;51.930;8.112;2023-05-13T10:11:38;12.15;;;5.32;;
35223;SDS011;21367;51.930;8.112;2023-05-13T10:16:51;8.80;;;3.72;;
35223;SDS011;21367;51.930;8.112;2023-05-13T10:21:55;11.93;;;4.10;;
35223;SDS011;21367;51.930;8.112;2023-05-13T10:27:00;10.98;;;4.32;;
35223;SDS011;21367;51.930;8.112;2023-05-13T10:37:17;10.13;;;3.67;;
35223;SDS011;21367;51.930;8.112;2023-05-13T10:42:36;10.15;;;3.90;;
35223;SDS011;21367;51.930;8.112;2023-05-13T10:47:47;25.90;;;4.40;;
35223;SDS011;21367;51.930;8.112;2023-05-13T10:52:54;12.57;;;4.40;;
35223;SDS011;21367;51.930;8.112;2023-05-13T10:58:02;19.02;;;4.65;;
35223;SDS011;21367;51.930;8.112;2023-05-13T11:03:13;7.32;;;4.28;;
35223;SDS011;21367;51.930;8.112;2023-05-13T11:08:34;9.52;;;4.40;;
35223;SDS011;21367;51.930;8.112;2023-05-13T11:13:39;12.25;;;4.18;;
35223;SDS011;21367;51.930;8.112;2023-05-13T11:18:46;10.65;;;4.28;;
35223;SDS011;21367;51.930;8.112;2023-05-13T11:23:51;12.57;;;3.85;;
35223;SDS011;21367;51.930;8.112;2023-05-13T11:28:56;8.70;;;3.92;;
35223;SDS011;21367;51.930;8.112;2023-05-13T11:34:08;13.32;;;4.05;;
35223;SDS011;21367;51.930;8.112;2023-05-13T11:39:14;9.48;;;4.07;;
35223;SDS011;21367;51.930;8.112;2023-05-13T11:44:21;10.63;;;4.35;;
35223;SDS011;21367;51.930;8.112;2023-05-13T11:54:56;12.73;;;4.20;;
35223;SDS011;21367;51.930;8.112;2023-05-13T12:00:00;15.82;;;4.95;;
35223;SDS011;21367;51.930;8.112;2023-05-13T12:05:11;9.52;;;3.75;;
35223;SDS011;21367;51.930;8.112;2023-05-13T12:10:16;12.57;;;3.97;;
35223;SDS011;21367;51.930;8.112;2023-05-13T12:15:20;11.15;;;4.05;;
35223;SDS011;21367;51.930;8.112;2023-05-13T12:20:27;11.80;;;4.13;;
35223;SDS011;21367;51.930;8.112;2023-05-13T12:25:35;11.20;;;3.95;;
35223;SDS011;21367;51.930;8.112;2023-05-13T12:30:50;12.02;;;4.45;;
35223;SDS011;21367;51.930;8.112;2023-05-13T12:41:22;16.48;;;3.90;;
35223;SDS011;21367;51.930;8.112;2023-05-13T12:46:28;13.07;;;3.83;;
35223;SDS011;21367;51.930;8.112;2023-05-13T12:51:34;7.78;;;3.75;;
35223;SDS011;21367;51.930;8.112;2023-05-13T12:56:38;9.55;;;3.17;;
35223;SDS011;21367;51.930;8.112;2023-05-13T13:01:42;6.22;;;3.28;;
35223;SDS011;21367;51.930;8.112;2023-05-13T13:16:56;9.48;;;3.70;;
35223;SDS011;21367;51.930;8.112;2023-05-13T13:22:03;22.15;;;3.80;;
35223;SDS011;21367;51.930;8.112;2023-05-13T13:27:08;12.95;;;3.75;;
35223;SDS011;21367;51.930;8.112;2023-05-13T13:37:19;15.18;;;3.92;;
35223;SDS011;21367;51.930;8.112;2023-05-13T13:42:22;8.55;;;3.95;;
35223;SDS011;21367;51.930;8.112;2023-05-13T13:47:26;9.65;;;3.92;;
35223;SDS011;21367;51.930;8.112;2023-05-13T13:52:33;12.68;;;4.30;;
35223;SDS011;21367;51.930;8.112;2023-05-13T13:57:36;11.40;;;4.10;;
35223;SDS011;21367;51.930;8.112;2023-05-13T14:02:40;7.75;;;3.92;;
35223;SDS011;21367;51.930;8.112;2023-05-13T14:07:47;10.07;;;3.28;;
35223;SDS011;21367;51.930;8.112;2023-05-13T14:12:53;10.60;;;3.85;;
35223;SDS011;21367;51.930;8.112;2023-05-13T14:17:57;11.88;;;2.90;;
35223;SDS011;21367;51.930;8.112;2023-05-13T14:23:03;12.80;;;3.58;;
35223;SDS011;21367;51.930;8.112;2023-05-13T14:28:07;6.93;;;2.88;;
35223;SDS011;21367;51.930;8.112;2023-05-13T14:33:14;9.60;;;3.47;;
35223;SDS011;21367;51.930;8.112;2023-05-13T14:38:21;5.95;;;2.88;;
35223;SDS011;21367;51.930;8.112;2023-05-13T14:43:26;10.68;;;3.22;;
35223;SDS011;21367;51.930;8.112;2023-05-13T14:48:30;10.50;;;3.78;;
35223;SDS011;21367;51.930;8.112;2023-05-13T14:53:36;12.00;;;4.18;;
35223;SDS011;21367;51.930;8.112;2023-05-13T14:58:40;74.55;;;15.20;;
35223;SDS011;21367;51.930;8.112;2023-05-13T15:03:43;12.07;;;3.15;;
35223;SDS011;21367;51.930;8.112;2023-05-13T15:08:50;19.73;;;4.38;;
35223;SDS011;21367;51.930;8.112;2023-05-13T15:13:53;14.25;;;3.53;;
35223;SDS011;21367;51.930;8.112;2023-05-13T15:18:57;25.00;;;4.47;;
35223;SDS011;21367;51.930;8.112;2023-05-13T15:24:05;8.15;;;2.90;;
35223;SDS011;21367;51.930;8.112;2023-05-13T15:29:08;10.75;;;3.30;;
35223;SDS011;21367;51.930;8.112;2023-05-13T15:34:12;14.57;;;2.80;;
35223;SDS011;21367;51.930;8.112;2023-05-13T15:39:19;7.90;;;3.08;;
35223;SDS011;21367;51.930;8.112;2023-05-13T15:44:22;11.27;;;3.22;;
35223;SDS011;21367;51.930;8.112;2023-05-13T15:49:27;7.25;;;3.40;;
35223;SDS011;21367;51.930;8.112;2023-05-13T15:54:34;12.23;;;3.28;;
35223;SDS011;21367;51.930;8.112;2023-05-13T15:59:38;8.82;;;3.60;;
35223;SDS011;21367;51.930;8.112;2023-05-13T16:04:42;7.13;;;3.10;;
35223;SDS011;21367;51.930;8.112;2023-05-13T16:09:49;10.30;;;3.47;;
35223;SDS011;21367;51.930;8.112;2023-05-13T16:14:52;15.27;;;3.40;;
35223;SDS011;21367;51.930;8.112;2023-05-13T16:19:56;10.40;;;3.17;;
35223;SDS011;21367;51.930;8.112;2023-05-13T16:25:03;11.52;;;2.75;;
35223;SDS011;21367;51.930;8.112;2023-05-13T16:30:08;5.78;;;2.83;;
35223;SDS011;21367;51.930;8.112;2023-05-13T16:35:12;5.90;;;3.20;;
35223;SDS011;21367;51.930;8.112;2023-05-13T16:40:19;7.97;;;2.95;;
35223;SDS011;21367;51.930;8.112;2023-05-13T16:45:22;10.18;;;3.15;;
35223;SDS011;21367;51.930;8.112;2023-05-13T16:50:26;6.18;;;2.95;;
35223;SDS011;21367;51.930;8.112;2023-05-13T17:00:53;5.15;;;2.72;;
35223;SDS011;21367;51.930;8.112;2023-05-13T17:05:57;10.65;;;3.38;;
35223;SDS011;21367;51.930;8.112;2023-05-13T17:11:05;10.35;;;3.17;;
35223;SDS011;21367;51.930;8.112;2023-05-13T17:16:15;4.68;;;3.10;;
35223;SDS011;21367;51.930;8.112;2023-05-13T17:21:18;13.50;;;3.95;;
35223;SDS011;21367;51.930;8.112;2023-05-13T17:26:25;8.38;;;3.28;;
35223;SDS011;21367;51.930;8.112;2023-05-13T17:31:29;8.38;;;3.13;;
35223;SDS011;21367;51.930;8.112;2023-05-13T17:36:32;9.80;;;3.13;;
35223;SDS011;21367;51.930;8.112;2023-05-13T17:41:39;11.63;;;3.25;;
35223;SDS011;21367;51.930;8.112;2023-05-13T17:46:43;14.88;;;3.17;;
35223;SDS011;21367;51.930;8.112;2023-05-13T17:51:46;11.88;;;3.35;;
35223;SDS011;21367;51.930;8.112;2023-05-13T17:56:52;16.58;;;3.40;;
35223;SDS011;21367;51.930;8.112;2023-05-13T18:01:56;7.60;;;3.28;;
35223;SDS011;21367;51.930;8.112;2023-05-13T18:07:00;14.02;;;3.30;;
35223;SDS011;21367;51.930;8.112;2023-05-13T18:12:08;15.07;;;3.50;;
35223;SDS011;21367;51.930;8.112;2023-05-13T18:17:12;9.10;;;3.45;;
35223;SDS011;21367;51.930;8.112;2023-05-13T18:22:16;7.70;;;3.33;;
35223;SDS011;21367;51.930;8.112;2023-05-13T18:27:29;10.52;;;3.85;;
35223;SDS011;21367;51.930;8.112;2023-05-13T18:32:33;10.90;;;3.55;;
35223;SDS011;21367;51.930;8.112;2023-05-13T18:37:37;11.10;;;3.28;;
35223;SDS011;21367;51.930;8.112;2023-05-13T18:42:44;5.93;;;3.22;;
35223;SDS011;21367;51.930;8.112;2023-05-13T18:47:48;11.05;;;3.28;;
35223;SDS011;21367;51.930;8.112;2023-05-13T18:52:52;10.50;;;3.10;;
35223;SDS011;21367;51.930;8.112;2023-05-13T18:57:58;9.93;;;3.80;;
35223;SDS011;21367;51.930;8.112;2023-05-13T19:03:04;9.95;;;3.85;;
35223;SDS011;21367;51.930;8.112;2023-05-13T19:08:07;7.90;;;4.10;;
35223;SDS011;21367;51.930;8.112;2023-05-13T19:13:14;12.65;;;3.80;;
35223;SDS011;21367;51.930;8.112;2023-05-13T19:18:20;13.90;;;3.97;;
35223;SDS011;21367;51.930;8.112;2023-05-13T19:23:24;9.88;;;3.78;;
35223;SDS011;21367;51.930;8.112;2023-05-13T19:28:31;10.77;;;3.40;;
35223;SDS011;21367;51.930;8.112;2023-05-13T19:33:35;6.40;;;3.60;;
35223;SDS011;21367;51.930;8.112;2023-05-13T19:38:39;8.05;;;3.63;;
35223;SDS011;21367;51.930;8.112;2023-05-13T19:43:46;14.43;;;4.10;;
35223;SDS011;21367;51.930;8.112;2023-05-13T19:48:50;9.18;;;3.83;;
35223;SDS011;21367;51.930;8.112;2023-05-13T19:53:54;8.63;;;4.13;;
35223;SDS011;21367;51.930;8.112;2023-05-13T19:59:00;9.52;;;3.88;;
35223;SDS011;21367;51.930;8.112;2023-05-13T20:04:04;7.68;;;3.83;;
35223;SDS011;21367;51.930;8.112;2023-05-13T20:09:07;8.10;;;3.63;;
35223;SDS011;21367;51.930;8.112;2023-05-13T20:14:17;9.05;;;4.85;;
35223;SDS011;21367;51.930;8.112;2023-05-13T20:19:22;11.07;;;4.97;;
35223;SDS011;21367;51.930;8.112;2023-05-13T20:24:26;11.90;;;4.40;;
35223;SDS011;21367;51.930;8.112;2023-05-13T20:29:34;13.60;;;5.93;;
35223;SDS011;21367;51.930;8.112;2023-05-13T20:34:38;7.43;;;4.50;;
35223;SDS011;21367;51.930;8.112;2023-05-13T20:39:42;12.60;;;5.00;;
35223;SDS011;21367;51.930;8.112;2023-05-13T20:44:48;8.27;;;4.43;;
35223;SDS011;21367;51.930;8.112;2023-05-13T20:49:53;14.40;;;4.90;;
35223;SDS011;21367;51.930;8.112;2023-05-13T20:54:57;11.98;;;4.82;;
35223;SDS011;21367;51.930;8.112;2023-05-13T21:00:05;13.90;;;5.22;;
35223;SDS011;21367;51.930;8.112;2023-05-13T21:05:11;10.27;;;5.20;;
35223;SDS011;21367;51.930;8.112;2023-05-13T21:10:15;10.57;;;4.95;;
35223;SDS011;21367;51.930;8.112;2023-05-13T21:15:22;11.20;;;5.00;;
35223;SDS011;21367;51.930;8.112;2023-05-13T21:20:26;15.13;;;5.57;;
35223;SDS011;21367;51.930;8.112;2023-05-13T21:25:33;10.10;;;5.30;;
35223;SDS011;21367;51.930;8.112;2023-05-13T21:30:40;11.00;;;5.15;;
35223;SDS011;21367;51.930;8.112;2023-05-13T21:35:44;11.35;;;5.40;;
35223;SDS011;21367;51.930;8.112;2023-05-13T21:40:47;12.63;;;6.22;;
35223;SDS011;21367;51.930;8.112;2023-05-13T21:45:54;11.98;;;5.57;;
35223;SDS011;21367;51.930;8.112;2023-05-13T21:56:01;11.52;;;5.32;;
35223;SDS011;21367;51.930;8.112;2023-05-13T22:01:08;16.95;;;5.22;;
35223;SDS011;21367;51.930;8.112;2023-05-13T22:06:12;12.10;;;4.60;;
35223;SDS011;21367;51.930;8.112;2023-05-13T22:11:16;10.82;;;5.03;;
35223;SDS011;21367;51.930;8.112;2023-05-13T22:16:23;9.13;;;5.35;;
35223;SDS011;21367;51.930;8.112;2023-05-13T22:21:27;12.05;;;5.88;;
35223;SDS011;21367;51.930;8.112;2023-05-13T22:26:30;12.30;;;5.60;;
35223;SDS011;21367;51.930;8.112;2023-05-13T22:31:38;10.30;;;5.55;;
35223;SDS011;21367;51.930;8.112;2023-05-13T22:36:42;13.05;;;5.82;;
35223;SDS011;21367;51.930;8.112;2023-05-13T22:41:46;16.45;;;5.60;;
35223;SDS011;21367;51.930;8.112;2023-05-13T22:46:52;16.83;;;5.20;;
35223;SDS011;21367;51.930;8.112;2023-05-13T22:51:56;12.98;;;5.38;;
35223;SDS011;21367;51.930;8.112;2023-05-13T22:57:00;9.85;;;5.93;;
35223;SDS011;21367;51.930;8.112;2023-05-13T23:02:06;11.75;;;5.72;;
35223;SDS011;21367;51.930;8.112;2023-05-13T23:07:10;17.63;;;5.75;;
35223;SDS011;21367;51.930;8.112;2023-05-13T23:12:14;10.82;;;5.30;;
35223;SDS011;21367;51.930;8.112;2023-05-13T23:17:20;12.80;;;6.10;;
35223;SDS011;21367;51.930;8.112;2023-05-13T23:22:24;10.85;;;5.30;;
35223;SDS011;21367;51.930;8.112;2023-05-13T23:27:28;10.57;;;5.72;;
35223;SDS011;21367;51.930;8.112;2023-05-13T23:32:35;12.02;;;5.57;;
35223;SDS011;21367;51.930;8.112;2023-05-13T23:37:39;11.43;;;5.43;;
35223;SDS011;21367;51.930;8.112;2023-05-13T23:42:42;10.63;;;5.32;;
35223;SDS011;21367;51.930;8.112;2023-05-13T23:47:49;13.85;;;5.35;;
35223;SDS011;21367;51.930;8.112;2023-05-13T23:52:53;11.75;;;5.80;;
35223;SDS011;21367;51.930;8.112;2023-05-13T23:57:56;9.02;;;6.03;;
